< < Back
Terminal Aerodrome Forecast


Current Version              Previous Versions:   1  2  3  4  5  6  7  8  9  

Terminal Aerodrome Forecast

759
FTUS44 KBMX 230500
TAFANB
TAF
KANB 230531Z 2306/2406 05003KT P6SM SKC
      TEMPO 2310/2313 SCT012 BKN020
     FM231500 05008KT P6SM SKC
     FM240000 05003KT P6SM SKC=

Latest METAR

982
SAUS70 KWBC 231200 RRA
MTRANB
METAR KANB 231153Z AUTO 05003KT 10SM CLR 13/11 A3019 RMK AO2 SLP220
T01330106 10150 20122 51014


USA.gov is the U.S. government's official web portal to all federal, state and local government web resources and services.